createdAt,value
2019-02-28T00:01:21.444Z,100.00
2019-02-28T00:03:51.021Z,100.00
2019-02-28T00:06:20.550Z,100.00
2019-02-28T00:08:51.090Z,100.00
2019-02-28T00:11:21.292Z,100.00
2019-02-28T00:13:52.385Z,100.00
2019-02-28T00:16:22.119Z,100.00
2019-02-28T00:18:51.610Z,100.00
2019-02-28T00:21:21.190Z,100.00
2019-02-28T00:23:56.392Z,100.00
2019-02-28T00:26:21.969Z,100.00
2019-02-28T00:28:51.464Z,100.00
2019-02-28T00:31:21.042Z,100.00
2019-02-28T00:33:50.612Z,100.00
2019-02-28T00:36:20.146Z,100.00
2019-02-28T00:38:49.650Z,100.00
2019-02-28T00:41:19.152Z,100.00
2019-02-28T00:43:48.680Z,100.00
2019-02-28T00:46:18.193Z,100.00
2019-02-28T00:48:47.723Z,100.00
2019-02-28T00:51:17.227Z,100.00
2019-02-28T00:53:46.754Z,100.00
2019-02-28T00:56:17.530Z,100.00
2019-02-28T00:58:47.493Z,100.00
2019-02-28T01:01:17.083Z,100.00
2019-02-28T01:03:46.584Z,100.00
2019-02-28T01:06:16.125Z,100.00
2019-02-28T01:08:45.620Z,100.00
2019-02-28T01:11:15.141Z,100.00
2019-02-28T01:13:44.632Z,100.00
2019-02-28T01:16:16.121Z,100.00
2019-02-28T01:18:45.551Z,100.00
2019-02-28T01:21:15.097Z,100.00
2019-02-28T01:23:44.615Z,100.00
2019-02-28T01:26:14.131Z,100.00
2019-02-28T01:28:43.871Z,100.00
2019-02-28T01:31:13.383Z,100.00
2019-02-28T01:33:42.880Z,100.00
2019-02-28T01:36:15.648Z,100.00
2019-02-28T01:38:44.195Z,100.00
2019-02-28T01:41:13.708Z,100.00
2019-02-28T01:43:43.218Z,100.00
2019-02-28T01:46:14.424Z,100.00
2019-02-28T01:48:44.036Z,100.00
2019-02-28T01:51:14.033Z,100.00
2019-02-28T01:53:43.547Z,100.00
2019-02-28T01:56:13.063Z,100.00
2019-02-28T01:58:42.594Z,100.00
2019-02-28T02:01:12.107Z,100.00
2019-02-28T02:03:41.808Z,100.00
2019-02-28T02:06:11.289Z,100.00
2019-02-28T02:08:40.807Z,100.00
2019-02-28T02:11:10.345Z,100.00
2019-02-28T02:13:39.859Z,100.00
2019-02-28T02:16:10.601Z,100.00
2019-02-28T02:18:43.190Z,100.00
2019-02-28T02:21:11.359Z,100.00
2019-02-28T02:23:40.868Z,100.00
2019-02-28T02:26:11.292Z,100.00
2019-02-28T02:28:41.294Z,100.00
2019-02-28T02:31:10.826Z,100.00
2019-02-28T02:33:40.337Z,100.00
2019-02-28T02:36:09.856Z,100.00
2019-02-28T02:38:41.422Z,100.00
2019-02-28T02:41:10.583Z,100.00
2019-02-28T02:43:41.322Z,100.00
2019-02-28T02:46:10.874Z,100.00
2019-02-28T02:48:42.292Z,100.00
2019-02-28T02:51:12.682Z,100.00
2019-02-28T02:53:43.326Z,100.00
2019-02-28T02:56:13.009Z,100.00
2019-02-28T02:58:42.510Z,100.00
2019-02-28T03:01:12.057Z,100.00
2019-02-28T03:03:44.309Z,100.00
2019-02-28T03:06:14.368Z,100.00
2019-02-28T03:08:44.063Z,100.00
2019-02-28T03:11:13.571Z,100.00
2019-02-28T03:13:44.207Z,100.00
2019-02-28T03:16:13.787Z,100.00
2019-02-28T03:18:43.303Z,100.00
2019-02-28T03:21:15.217Z,100.00
2019-02-28T03:23:44.061Z,100.00
2019-02-28T03:26:13.579Z,100.00
2019-02-28T03:28:43.085Z,100.00
2019-02-28T03:31:15.377Z,100.00
2019-02-28T03:33:43.855Z,100.00
2019-02-28T03:36:15.616Z,100.00
2019-02-28T03:38:48.179Z,100.00
2019-02-28T03:41:17.828Z,100.00
2019-02-28T03:43:47.168Z,100.00
2019-02-28T03:46:16.657Z,100.00
2019-02-28T03:48:46.185Z,100.00
2019-02-28T03:51:15.703Z,100.00
2019-02-28T03:53:46.495Z,100.00
2019-02-28T03:56:16.132Z,100.00
2019-02-28T03:58:45.654Z,100.00
2019-02-28T04:01:15.269Z,100.00
2019-02-28T04:03:44.776Z,100.00
2019-02-28T04:06:15.130Z,100.00
2019-02-28T04:08:44.637Z,100.00
2019-02-28T04:11:14.158Z,100.00
2019-02-28T04:13:43.658Z,100.00
2019-02-28T04:16:13.180Z,100.00
2019-02-28T04:18:46.159Z,100.00
2019-02-28T04:21:14.591Z,100.00
2019-02-28T04:23:44.094Z,100.00
2019-02-28T04:26:13.642Z,100.00
2019-02-28T04:28:43.142Z,100.00
2019-02-28T04:31:18.425Z,100.00
2019-02-28T04:33:43.895Z,100.00
2019-02-28T04:36:13.405Z,100.00
2019-02-28T04:38:42.904Z,100.00
2019-02-28T04:41:12.425Z,100.00
2019-02-28T04:43:44.391Z,100.00
2019-02-28T04:46:13.403Z,100.00
2019-02-28T04:48:45.657Z,100.00
2019-02-28T04:51:14.157Z,100.00
2019-02-28T04:53:43.674Z,100.00
2019-02-28T04:56:13.228Z,100.00
2019-02-28T04:58:42.725Z,100.00
2019-02-28T05:01:13.283Z,100.00
2019-02-28T05:03:42.854Z,100.00
2019-02-28T05:06:12.382Z,100.00
2019-02-28T05:08:41.884Z,100.00
2019-02-28T05:11:11.428Z,100.00
2019-02-28T05:13:41.226Z,100.00
2019-02-28T05:16:12.402Z,100.00
2019-02-28T05:18:41.967Z,100.00
2019-02-28T05:21:11.482Z,100.00
2019-02-28T05:23:40.993Z,100.00
2019-02-28T05:26:10.510Z,100.00
2019-02-28T05:28:41.165Z,100.00
2019-02-28T05:31:11.131Z,100.00
2019-02-28T05:33:42.015Z,100.00
2019-02-28T05:36:11.842Z,100.00
2019-02-28T05:38:41.349Z,100.00
2019-02-28T05:41:12.187Z,100.00
2019-02-28T05:43:42.119Z,100.00
2019-02-28T05:46:11.635Z,100.00
2019-02-28T05:48:41.129Z,100.00
2019-02-28T05:51:10.651Z,100.00
2019-02-28T05:53:41.384Z,100.00
2019-02-28T05:56:11.415Z,100.00
2019-02-28T05:58:40.930Z,100.00
2019-02-28T06:01:11.921Z,100.00
2019-02-28T06:03:41.704Z,100.00
2019-02-28T06:06:11.225Z,100.00
2019-02-28T06:08:40.757Z,100.00
2019-02-28T06:11:10.302Z,100.00
2019-02-28T06:13:39.804Z,100.00
2019-02-28T06:16:12.321Z,100.00
2019-02-28T06:18:40.640Z,100.00
2019-02-28T06:21:10.454Z,100.00
2019-02-28T06:23:40.715Z,100.00
2019-02-28T06:26:11.039Z,100.00
2019-02-28T06:28:40.625Z,100.00
2019-02-28T06:31:10.181Z,100.00
2019-02-28T06:33:40.413Z,100.00
2019-02-28T06:36:09.940Z,100.00
2019-02-28T06:38:39.491Z,100.00
2019-02-28T06:41:09.035Z,100.00
2019-02-28T06:43:38.531Z,100.00
2019-02-28T06:46:09.310Z,100.00
2019-02-28T06:48:38.942Z,100.00
2019-02-28T06:51:08.445Z,90.22
2019-02-28T06:53:39.219Z,69.82
2019-02-28T06:56:08.703Z,60.24
2019-02-28T06:58:38.209Z,54.18
2019-02-28T07:01:07.714Z,52.09
2019-02-28T07:03:38.982Z,46.89
2019-02-28T07:06:08.447Z,46.56
2019-02-28T07:08:37.950Z,46.83
2019-02-28T07:11:07.438Z,44.36
2019-02-28T07:13:39.960Z,44.35
2019-02-28T07:16:08.154Z,42.22
2019-02-28T07:18:37.684Z,39.73
2019-02-28T07:21:07.892Z,39.80
2019-02-28T07:23:38.096Z,38.75
2019-02-28T07:26:07.624Z,42.76
2019-02-28T07:28:37.697Z,54.83
2019-02-28T07:31:07.292Z,81.87
2019-02-28T07:33:36.806Z,100.00
2019-02-28T07:36:09.583Z,100.00
2019-02-28T07:38:37.613Z,100.00
2019-02-28T07:41:07.135Z,78.47
2019-02-28T07:43:36.640Z,67.89
2019-02-28T07:46:07.743Z,64.81
2019-02-28T07:48:37.378Z,66.80
2019-02-28T07:51:06.882Z,64.89
2019-02-28T07:53:36.724Z,61.59
2019-02-28T07:56:07.106Z,53.93
2019-02-28T07:58:37.391Z,37.56
2019-02-28T08:01:06.978Z,28.47
2019-02-28T08:03:36.489Z,24.47
2019-02-28T08:06:06.229Z,23.65
2019-02-28T08:08:35.792Z,22.53
2019-02-28T08:11:05.389Z,21.35
2019-02-28T08:13:37.868Z,24.18
2019-02-28T08:16:06.408Z,25.80
2019-02-28T08:18:35.978Z,27.74
2019-02-28T08:21:08.722Z,27.60
2019-02-28T08:23:37.570Z,25.64
2019-02-28T08:26:08.018Z,24.78
2019-02-28T08:28:37.540Z,25.24
2019-02-28T08:31:07.665Z,24.98
2019-02-28T08:33:37.180Z,24.45
2019-02-28T08:36:11.611Z,23.48
2019-02-28T08:38:38.022Z,21.90
2019-02-28T08:41:07.517Z,23.29
2019-02-28T08:43:37.033Z,22.78
2019-02-28T08:46:09.969Z,23.17
2019-02-28T08:48:37.855Z,21.02
2019-02-28T08:51:07.381Z,21.04
2019-02-28T08:53:36.914Z,21.14
2019-02-28T08:56:06.438Z,21.36
2019-02-28T08:58:37.599Z,21.77
2019-02-28T09:01:08.232Z,19.98
2019-02-28T09:03:37.823Z,18.87
2019-02-28T09:06:07.540Z,18.88
2019-02-28T09:08:37.146Z,20.22
2019-02-28T09:11:06.703Z,19.08
2019-02-28T09:13:36.296Z,19.93
2019-02-28T09:16:05.955Z,19.63
2019-02-28T09:18:35.572Z,18.09
2019-02-28T09:21:05.141Z,19.27
2019-02-28T09:23:37.725Z,16.62
2019-02-28T09:26:06.010Z,19.48
2019-02-28T09:28:35.547Z,19.78
2019-02-28T09:31:05.975Z,20.99
2019-02-28T09:33:35.543Z,20.24
2019-02-28T09:36:05.110Z,19.07
2019-02-28T09:38:34.634Z,19.10
2019-02-28T09:41:04.768Z,19.34
2019-02-28T09:43:34.908Z,18.92
2019-02-28T09:46:04.468Z,21.58
2019-02-28T09:48:37.281Z,21.91
2019-02-28T09:51:05.249Z,20.90
2019-02-28T09:53:34.773Z,23.85
2019-02-28T09:56:09.044Z,25.04
2019-02-28T09:58:35.580Z,25.50
2019-02-28T10:01:05.376Z,24.70
2019-02-28T10:03:34.908Z,25.39
2019-02-28T10:06:04.421Z,25.75
2019-02-28T10:08:36.899Z,23.82
2019-02-28T10:11:05.328Z,24.28
2019-02-28T10:13:34.853Z,24.39
2019-02-28T10:16:04.378Z,27.27
2019-02-28T10:18:35.476Z,27.25
2019-02-28T10:21:05.203Z,28.57
2019-02-28T10:23:34.754Z,28.42
2019-02-28T10:26:04.451Z,28.58
2019-02-28T10:28:34.163Z,27.99
2019-02-28T10:31:03.744Z,28.34
2019-02-28T10:33:33.262Z,28.19
2019-02-28T10:36:02.791Z,26.87
2019-02-28T10:38:33.115Z,26.44
2019-02-28T10:41:03.347Z,24.11
2019-02-28T10:43:32.879Z,25.27
2019-02-28T10:46:02.450Z,23.94
2019-02-28T10:48:31.965Z,24.82
2019-02-28T10:51:12.632Z,24.27
2019-02-28T10:53:32.700Z,21.40
2019-02-28T10:56:02.208Z,21.54
2019-02-28T10:58:31.720Z,22.79
2019-02-28T11:01:07.668Z,22.23
2019-02-28T11:03:33.269Z,21.19
2019-02-28T11:06:02.965Z,21.75
2019-02-28T11:08:32.531Z,23.03
2019-02-28T11:11:02.436Z,23.22
2019-02-28T11:13:32.987Z,21.95
2019-02-28T11:16:02.569Z,23.29
2019-02-28T11:18:32.163Z,24.09
2019-02-28T11:21:01.756Z,23.47
2019-02-28T11:23:31.362Z,22.20
2019-02-28T11:26:03.162Z,23.27
2019-02-28T11:28:33.390Z,23.50
2019-02-28T11:31:03.095Z,21.84
2019-02-28T11:33:32.622Z,21.75
2019-02-28T11:36:02.476Z,22.21
2019-02-28T11:38:31.987Z,20.89
2019-02-28T11:41:01.632Z,20.75
2019-02-28T11:43:37.521Z,18.50
2019-02-28T11:46:03.380Z,20.61
2019-02-28T11:48:32.988Z,20.63
2019-02-28T11:51:02.500Z,19.64
2019-02-28T11:53:32.024Z,21.58
2019-02-28T11:56:01.594Z,22.22
2019-02-28T11:58:31.275Z,19.43
2019-02-28T12:01:02.312Z,20.56
2019-02-28T12:03:35.458Z,21.45
2019-02-28T12:06:03.226Z,19.80
2019-02-28T12:08:32.810Z,20.94
2019-02-28T12:11:02.900Z,18.63
2019-02-28T12:13:32.425Z,21.27
2019-02-28T12:16:01.935Z,18.28
2019-02-28T12:18:31.456Z,19.90
2019-02-28T12:21:02.095Z,21.09
2019-02-28T12:23:32.199Z,20.38
2019-02-28T12:26:01.789Z,20.10
2019-02-28T12:28:31.288Z,19.70
2019-02-28T12:31:01.138Z,20.12
2019-02-28T12:33:30.617Z,20.67
2019-02-28T12:36:00.198Z,22.67
2019-02-28T12:38:29.749Z,22.07
2019-02-28T12:40:59.325Z,23.26
2019-02-28T12:43:28.835Z,21.47
2019-02-28T12:46:00.141Z,21.25
2019-02-28T12:48:29.813Z,20.02
2019-02-28T12:51:02.264Z,19.66
2019-02-28T12:53:32.440Z,20.58
2019-02-28T12:56:01.797Z,21.24
2019-02-28T12:58:38.860Z,21.84
2019-02-28T13:01:03.414Z,20.50
2019-02-28T13:03:33.013Z,20.24
2019-02-28T13:06:02.520Z,22.38
2019-02-28T13:08:32.027Z,20.97
2019-02-28T13:11:04.310Z,21.93
2019-02-28T13:13:32.897Z,20.99
2019-02-28T13:16:02.521Z,19.74
2019-02-28T13:18:32.032Z,19.10
2019-02-28T13:21:01.640Z,22.63
2019-02-28T13:23:32.801Z,23.73
2019-02-28T13:26:02.557Z,22.62
2019-02-28T13:28:32.049Z,21.54
2019-02-28T13:31:01.698Z,22.00
2019-02-28T13:33:31.231Z,21.41
2019-02-28T13:36:00.761Z,25.09
2019-02-28T13:38:30.389Z,24.48
2019-02-28T13:40:59.939Z,23.38
2019-02-28T13:43:29.436Z,24.17
2019-02-28T13:45:59.040Z,21.97
2019-02-28T13:48:33.138Z,23.57
2019-02-28T13:51:02.532Z,22.97
2019-02-28T13:53:31.868Z,24.93
2019-02-28T13:56:01.620Z,25.91
2019-02-28T13:58:31.254Z,25.79
2019-02-28T14:01:00.725Z,25.82
2019-02-28T14:03:30.231Z,25.40
2019-02-28T14:05:59.741Z,26.07
2019-02-28T14:08:29.260Z,27.66
2019-02-28T14:10:58.873Z,27.86
2019-02-28T14:13:30.060Z,28.27
2019-02-28T14:15:59.894Z,28.31
2019-02-28T14:18:29.378Z,28.56
2019-02-28T14:20:59.526Z,29.05
2019-02-28T14:23:30.199Z,29.09
2019-02-28T14:25:59.752Z,28.60
2019-02-28T14:28:32.324Z,29.49
2019-02-28T14:31:00.595Z,28.71
2019-02-28T14:33:30.158Z,27.60
2019-02-28T14:35:59.686Z,27.09
2019-02-28T14:38:29.491Z,26.08
2019-02-28T14:41:00.529Z,26.72
2019-02-28T14:43:30.074Z,26.70
2019-02-28T14:45:59.596Z,26.70
2019-02-28T14:48:29.164Z,26.52
2019-02-28T14:50:58.970Z,27.19
2019-02-28T14:53:28.479Z,27.87
2019-02-28T14:55:57.999Z,27.21
2019-02-28T14:58:27.574Z,26.81
2019-02-28T15:00:57.080Z,27.97
2019-02-28T15:03:26.679Z,28.04
2019-02-28T15:05:56.278Z,28.06
2019-02-28T15:08:27.151Z,28.28
2019-02-28T15:10:56.845Z,28.62
2019-02-28T15:13:26.342Z,28.65
2019-02-28T15:15:55.942Z,28.44
2019-02-28T15:18:25.880Z,29.17
2019-02-28T15:20:55.413Z,28.10
2019-02-28T15:23:24.903Z,29.30
2019-02-28T15:25:55.020Z,28.68
2019-02-28T15:28:24.592Z,28.75
2019-02-28T15:30:54.485Z,28.84
2019-02-28T15:33:23.991Z,28.76
2019-02-28T15:35:53.591Z,28.06
2019-02-28T15:38:23.120Z,28.92
2019-02-28T15:40:55.650Z,29.22
2019-02-28T15:43:23.978Z,29.57
2019-02-28T15:45:53.497Z,29.44
2019-02-28T15:48:22.990Z,30.51
2019-02-28T15:50:52.814Z,30.09
2019-02-28T15:53:22.250Z,30.74
2019-02-28T15:55:51.936Z,30.38
2019-02-28T15:58:21.416Z,31.14
2019-02-28T16:00:53.715Z,31.80
2019-02-28T16:03:22.352Z,31.48
2019-02-28T16:05:52.018Z,31.39
2019-02-28T16:08:21.589Z,33.18
2019-02-28T16:10:53.598Z,32.83
2019-02-28T16:13:22.738Z,32.34
2019-02-28T16:15:53.699Z,33.16
2019-02-28T16:18:23.312Z,33.73
2019-02-28T16:20:52.837Z,33.96
2019-02-28T16:23:23.648Z,34.02
2019-02-28T16:25:53.575Z,34.75
2019-02-28T16:28:23.231Z,35.08
2019-02-28T16:30:52.803Z,35.61
2019-02-28T16:33:24.725Z,36.32
2019-02-28T16:35:53.522Z,36.44
2019-02-28T16:38:23.329Z,36.87
2019-02-28T16:40:52.859Z,37.40
2019-02-28T16:43:22.472Z,37.29
2019-02-28T16:45:52.152Z,38.13
2019-02-28T16:48:22.308Z,37.99
2019-02-28T16:50:53.833Z,38.45
2019-02-28T16:53:23.799Z,39.07
2019-02-28T16:55:53.546Z,39.09
2019-02-28T16:58:23.076Z,39.34
2019-02-28T17:00:52.641Z,40.19
2019-02-28T17:03:22.165Z,39.93
2019-02-28T17:05:51.664Z,40.67
2019-02-28T17:08:21.200Z,41.43
2019-02-28T17:10:50.723Z,42.24
2019-02-28T17:13:20.101Z,42.60
2019-02-28T17:16:02.487Z,43.10
2019-02-28T17:18:33.816Z,42.67
2019-02-28T17:21:03.744Z,42.68
2019-02-28T17:23:33.795Z,43.31
2019-02-28T17:26:04.541Z,43.91
2019-02-28T17:28:33.830Z,44.12
2019-02-28T17:31:05.037Z,44.93
2019-02-28T17:33:34.669Z,44.76
2019-02-28T17:36:08.184Z,45.50
2019-02-28T17:38:37.229Z,45.89
2019-02-28T17:41:06.640Z,47.17
2019-02-28T17:43:39.302Z,47.81
2019-02-28T17:46:15.371Z,47.55
2019-02-28T17:49:42.178Z,48.40
2019-02-28T17:52:41.199Z,49.06
2019-02-28T17:55:42.277Z,49.33
2019-02-28T17:58:19.454Z,49.88
2019-02-28T18:01:28.730Z,50.78
2019-02-28T18:04:20.906Z,50.85
2019-02-28T18:07:26.599Z,52.21
2019-02-28T18:10:25.398Z,52.71
2019-02-28T18:13:02.080Z,52.83
2019-02-28T18:15:45.948Z,54.12
2019-02-28T18:18:32.334Z,54.52
2019-02-28T18:21:33.400Z,53.08
2019-02-28T18:24:07.601Z,54.07
2019-02-28T18:26:59.194Z,56.30
2019-02-28T18:30:09.004Z,56.93
2019-02-28T18:32:38.805Z,58.72
2019-02-28T18:35:10.135Z,60.62
2019-02-28T18:37:39.679Z,61.79
2019-02-28T18:40:09.985Z,61.03
2019-02-28T18:42:39.486Z,62.22
2019-02-28T18:45:11.949Z,62.95
2019-02-28T18:47:41.499Z,63.11
2019-02-28T18:50:11.150Z,63.89
2019-02-28T18:52:40.637Z,64.30
2019-02-28T18:55:10.226Z,64.55
2019-02-28T18:57:39.762Z,65.55
2019-02-28T19:00:15.699Z,64.45
2019-02-28T19:02:45.265Z,66.31
2019-02-28T19:05:14.887Z,66.45
2019-02-28T19:07:44.457Z,67.08
2019-02-28T19:10:14.119Z,67.57
2019-02-28T19:12:43.624Z,67.81
2019-02-28T19:15:15.672Z,69.27
2019-02-28T19:17:45.152Z,69.75
2019-02-28T19:20:14.781Z,70.87
2019-02-28T19:22:44.270Z,71.63
2019-02-28T19:25:13.874Z,72.84
2019-02-28T19:27:43.444Z,73.80
2019-02-28T19:30:15.573Z,73.46
2019-02-28T19:32:45.130Z,71.57
2019-02-28T19:35:15.833Z,72.27
2019-02-28T19:37:45.371Z,70.83
2019-02-28T19:40:15.343Z,71.78
2019-02-28T19:42:44.899Z,72.02
2019-02-28T19:45:36.710Z,72.08
2019-02-28T19:48:06.309Z,73.11
2019-02-28T19:50:35.868Z,71.71
2019-02-28T19:53:05.384Z,70.86
2019-02-28T19:55:34.920Z,71.66
2019-02-28T19:58:04.528Z,71.70
2019-02-28T20:00:34.035Z,71.29
2019-02-28T20:03:03.598Z,71.11
2019-02-28T20:05:33.468Z,71.48
2019-02-28T20:08:02.991Z,71.36
2019-02-28T20:10:32.510Z,72.07
2019-02-28T20:13:02.021Z,73.49
2019-02-28T20:15:35.632Z,72.79
2019-02-28T20:18:05.352Z,70.44
2019-02-28T20:20:34.883Z,72.38
2019-02-28T20:23:04.561Z,71.62
2019-02-28T20:25:34.097Z,72.05
2019-02-28T20:28:03.630Z,74.61
2019-02-28T20:30:33.297Z,75.33
2019-02-28T20:33:02.863Z,76.68
2019-02-28T20:35:32.431Z,77.12
2019-02-28T20:38:01.997Z,77.41
2019-02-28T20:40:35.027Z,78.02
2019-02-28T20:43:04.618Z,78.21
2019-02-28T20:45:34.137Z,77.62
2019-02-28T20:48:04.326Z,77.89
2019-02-28T20:50:49.286Z,78.93
2019-02-28T20:53:18.793Z,79.67
2019-02-28T20:55:48.301Z,81.23
2019-02-28T20:58:17.850Z,81.42
2019-02-28T21:00:47.422Z,80.42
2019-02-28T21:03:16.951Z,80.68
2019-02-28T21:05:46.508Z,81.74
2019-02-28T21:08:16.083Z,81.95
2019-02-28T21:10:45.621Z,83.70
2019-02-28T21:13:15.200Z,85.14
2019-02-28T21:15:44.786Z,87.69
2019-02-28T21:18:14.279Z,87.12
2019-02-28T21:20:43.997Z,88.28
2019-02-28T21:23:13.490Z,88.12
2019-02-28T21:25:43.010Z,89.00
2019-02-28T21:28:12.478Z,88.99
2019-02-28T21:30:42.024Z,91.03
2019-02-28T21:33:11.510Z,90.70
2019-02-28T21:35:41.002Z,89.74
2019-02-28T21:38:10.681Z,90.40
2019-02-28T21:40:40.452Z,89.28
2019-02-28T21:43:10.036Z,91.30
2019-02-28T21:45:39.542Z,92.90
2019-02-28T21:48:09.057Z,92.95
2019-02-28T21:50:39.399Z,93.83
2019-02-28T21:53:08.887Z,94.26
2019-02-28T21:55:38.403Z,92.82
2019-02-28T21:58:07.908Z,93.33
2019-02-28T22:00:37.407Z,93.25
2019-02-28T22:03:07.690Z,94.70
2019-02-28T22:05:37.202Z,94.58
2019-02-28T22:08:06.718Z,94.66
2019-02-28T22:10:36.240Z,95.74
2019-02-28T22:13:05.738Z,98.62
2019-02-28T22:15:35.829Z,99.55
2019-02-28T22:18:05.462Z,100.00
2019-02-28T22:20:36.743Z,100.00
2019-02-28T22:23:06.449Z,100.00
2019-02-28T22:25:36.042Z,100.00
2019-02-28T22:28:05.609Z,100.00
2019-02-28T22:30:40.692Z,100.00
2019-02-28T22:33:27.096Z,100.00
2019-02-28T22:36:03.966Z,100.00
2019-02-28T22:38:33.461Z,100.00
2019-02-28T22:41:02.980Z,100.00
2019-02-28T22:43:32.478Z,100.00
2019-02-28T22:46:01.996Z,100.00
2019-02-28T22:48:31.581Z,100.00
2019-02-28T22:51:01.096Z,100.00
2019-02-28T22:53:31.278Z,100.00
2019-02-28T22:56:00.781Z,100.00
2019-02-28T22:58:30.316Z,100.00
2019-02-28T23:01:19.669Z,100.00
2019-02-28T23:03:49.195Z,100.00
2019-02-28T23:06:18.725Z,100.00
2019-02-28T23:08:48.214Z,100.00
2019-02-28T23:11:17.719Z,100.00
2019-02-28T23:13:47.215Z,100.00
2019-02-28T23:16:16.734Z,100.00
2019-02-28T23:18:46.230Z,100.00
2019-02-28T23:21:15.729Z,100.00
2019-02-28T23:23:45.242Z,100.00
2019-02-28T23:26:14.921Z,100.00
2019-02-28T23:28:52.351Z,100.00
2019-02-28T23:31:41.227Z,100.00
2019-02-28T23:34:30.481Z,100.00
2019-02-28T23:36:59.981Z,100.00
2019-02-28T23:39:29.495Z,100.00
2019-02-28T23:41:59.010Z,100.00
2019-02-28T23:44:28.535Z,100.00
2019-02-28T23:46:58.049Z,100.00
2019-02-28T23:49:27.585Z,100.00
2019-02-28T23:51:57.115Z,100.00
2019-02-28T23:54:26.602Z,100.00
2019-02-28T23:56:56.112Z,100.00
2019-02-28T23:59:25.611Z,100.00
